Time;durP1;ratioP1;P1;durP2;ratioP2;P2;SDS_P1;SDS_P2;PMS_P1;PMS_P2;Temp;Humidity;BMP_temperature;BMP_pressure;BME280_temperature;BME280_humidity;BME280_pressure;Samples;Min_cycle;Max_cycle;Signal;HPM_P1;HPM_P2
2022/06/10 00:00:42;;;;;;;;;;;15.00;99.90;;;;;;10287205;28;85139;-50
2022/06/10 00:05:44;;;;;;;;;;;14.90;99.90;;;;;;10272447;22;84538;-50
2022/06/10 00:10:45;;;;;;;;;;;15.00;99.90;;;;;;10252289;28;85122;-51
2022/06/10 00:15:46;;;;;;;;;;;14.90;99.90;;;;;;10287555;28;84272;-50
2022/06/10 00:20:47;;;;;;;;;;;14.90;99.90;;;;;;10286352;28;84035;-50
2022/06/10 00:25:47;;;;;;;;;;;14.90;99.90;;;;;;10279202;28;84096;-52
2022/06/10 00:30:48;;;;;;;;;;;14.80;99.90;;;;;;10247496;28;84855;-52
2022/06/10 00:35:49;;;;;;;;;;;14.70;99.90;;;;;;10246328;28;84693;-49
2022/06/10 00:40:51;;;;;;;;;;;14.60;99.90;;;;;;10243085;28;84732;-48
2022/06/10 00:45:52;;;;;;;;;;;14.50;99.90;;;;;;10269365;28;84164;-50
2022/06/10 00:50:53;;;;;;;;;;;14.40;99.90;;;;;;10285338;28;84938;-52
2022/06/10 00:55:55;;;;;;;;;;;14.40;99.90;;;;;;10286027;28;84253;-52
2022/06/10 01:00:55;;;;;;;;;;;14.40;99.90;;;;;;10267192;28;85003;-51
2022/06/10 01:05:56;;;;;;;;;;;14.40;99.90;;;;;;10243462;28;84944;-51
2022/06/10 01:11:04;;;;;;;;;;;14.30;99.90;;;;;;10244290;28;84238;-51
2022/06/10 01:16:19;;;;;;;;;;;14.30;99.90;;;;;;10244625;28;85074;-51
2022/06/10 01:21:19;;;;;;;;;;;14.20;99.90;;;;;;10242896;28;86323;-50
2022/06/10 01:26:32;;;;;;;;;;;14.10;99.90;;;;;;10244807;28;85002;-49
2022/06/10 01:31:42;;;;;;;;;;;14.10;99.90;;;;;;10244021;28;84780;-51
2022/06/10 01:36:42;;;;;;;;;;;14.10;99.90;;;;;;10204014;28;84947;-52
2022/06/10 01:42:02;;;;;;;;;;;14.10;99.90;;;;;;10242276;28;84368;-47
2022/06/10 01:47:24;;;;;;;;;;;14.00;99.90;;;;;;10244210;28;84079;-49
2022/06/10 01:52:32;;;;;;;;;;;13.90;99.90;;;;;;10253551;28;84825;-48
2022/06/10 01:57:48;;;;;;;;;;;13.90;99.90;;;;;;10281950;28;84910;-50
2022/06/10 02:02:54;;;;;;;;;;;13.90;99.90;;;;;;10284706;28;84985;-52
2022/06/10 02:07:59;;;;;;;;;;;13.70;99.90;;;;;;10286744;28;84949;-52
2022/06/10 02:13:02;;;;;;;;;;;13.60;99.90;;;;;;10250388;28;84927;-50
2022/06/10 02:18:12;;;;;;;;;;;13.50;99.90;;;;;;10249808;28;84972;-49
2022/06/10 02:23:14;;;;;;;;;;;13.50;99.90;;;;;;10248270;28;85002;-49
2022/06/10 02:28:17;;;;;;;;;;;13.40;99.90;;;;;;10270833;28;87150;-50
2022/06/10 02:33:18;;;;;;;;;;;13.40;99.90;;;;;;10290036;28;84019;-47
2022/06/10 02:38:38;;;;;;;;;;;13.40;99.90;;;;;;10258954;28;84688;-49
2022/06/10 02:43:54;;;;;;;;;;;13.40;99.90;;;;;;10277266;28;84903;-51
2022/06/10 02:49:00;;;;;;;;;;;13.40;99.90;;;;;;10263854;28;84114;-50
2022/06/10 02:54:03;;;;;;;;;;;13.40;99.90;;;;;;10248305;28;84091;-50
2022/06/10 03:04:31;;;;;;;;;;;13.40;99.90;;;;;;10288828;28;84950;-49
2022/06/10 03:09:31;;;;;;;;;;;13.40;99.90;;;;;;10287359;28;86894;-51
2022/06/10 03:14:43;;;;;;;;;;;13.40;99.90;;;;;;10272904;28;84833;-51
2022/06/10 03:19:50;;;;;;;;;;;13.30;99.90;;;;;;10248398;28;84787;-48
2022/06/10 03:24:59;;;;;;;;;;;13.20;99.90;;;;;;10246139;28;85059;-47
2022/06/10 03:30:05;;;;;;;;;;;13.10;99.90;;;;;;10247282;28;84775;-49
2022/06/10 03:35:10;;;;;;;;;;;13.10;99.90;;;;;;10246651;28;84794;-52
2022/06/10 03:40:21;;;;;;;;;;;13.00;99.90;;;;;;10248356;28;84236;-49
2022/06/10 03:45:23;;;;;;;;;;;13.00;99.90;;;;;;10249155;28;84112;-51
2022/06/10 03:50:29;;;;;;;;;;;13.00;99.90;;;;;;10248357;28;84154;-49
2022/06/10 03:55:30;;;;;;;;;;;13.00;99.90;;;;;;10248521;28;84699;-50
2022/06/10 04:00:31;;;;;;;;;;;13.00;99.90;;;;;;10246170;28;84783;-48
2022/06/10 04:05:32;;;;;;;;;;;12.90;99.90;;;;;;10239287;28;84794;-50
2022/06/10 04:10:32;;;;;;;;;;;12.90;99.90;;;;;;10242622;28;85640;-51
2022/06/10 04:15:33;;;;;;;;;;;12.90;99.90;;;;;;10218073;28;86423;-53
2022/06/10 04:20:35;;;;;;;;;;;12.90;99.90;;;;;;10226369;28;84106;-47
2022/06/10 04:25:37;;;;;;;;;;;12.90;99.90;;;;;;10227991;28;84315;-50
2022/06/10 04:30:39;;;;;;;;;;;13.00;99.90;;;;;;10225097;28;84178;-49
2022/06/10 04:35:40;;;;;;;;;;;13.00;99.90;;;;;;10225936;28;84774;-51
2022/06/10 04:40:41;;;;;;;;;;;13.20;99.90;;;;;;10228576;28;84151;-51
2022/06/10 04:45:44;;;;;;;;;;;13.50;99.90;;;;;;10226568;28;84840;-52
2022/06/10 04:50:47;;;;;;;;;;;13.60;99.90;;;;;;10222496;28;84976;-47
2022/06/10 04:55:48;;;;;;;;;;;13.80;99.90;;;;;;10223215;28;85065;-51
2022/06/10 05:00:49;;;;;;;;;;;14.00;99.90;;;;;;10230226;28;84222;-48
2022/06/10 05:05:50;;;;;;;;;;;14.10;99.90;;;;;;10226629;28;84197;-48
2022/06/10 05:10:50;;;;;;;;;;;14.30;99.90;;;;;;10241832;28;84769;-52
2022/06/10 05:15:51;;;;;;;;;;;14.40;99.90;;;;;;10233435;28;84939;-52
2022/06/10 05:20:52;;;;;;;;;;;14.50;99.90;;;;;;10228049;28;84745;-49
2022/06/10 05:25:53;;;;;;;;;;;14.60;99.90;;;;;;10224492;28;86680;-49
2022/06/10 05:30:53;;;;;;;;;;;14.80;99.90;;;;;;10231169;28;84965;-48
2022/06/10 05:35:54;;;;;;;;;;;14.90;99.90;;;;;;10227067;28;84799;-53
2022/06/10 05:42:04;;;;;;;;;;;15.00;99.90;;;;;;10230809;28;84616;-50
2022/06/10 05:46:15;;;;;;;;;;;15.10;99.90;;;;;;10232123;28;84698;-51
2022/06/10 05:51:15;;;;;;;;;;;15.30;99.90;;;;;;10245590;28;84233;-52
2022/06/10 05:56:16;;;;;;;;;;;15.50;89.60;;;;;;10220203;28;84325;-48
2022/06/10 06:01:17;;;;;;;;;;;15.70;15.90;;;;;;10250964;28;84898;-51
2022/06/10 06:06:18;;;;;;;;;;;16.10;1.00;;;;;;10304180;22;84410;-49
2022/06/10 06:11:19;;;;;;;;;;;16.30;1.00;;;;;;10287414;28;84216;-49
2022/06/10 06:16:19;;;;;;;;;;;16.50;1.00;;;;;;10289629;28;85088;-49
2022/06/10 06:21:20;;;;;;;;;;;16.90;1.00;;;;;;10290453;28;84586;-51
2022/06/10 06:26:20;;;;;;;;;;;17.10;1.00;;;;;;10290485;28;85142;-52
2022/06/10 06:31:22;;;;;;;;;;;17.10;1.00;;;;;;10290670;28;84857;-49
2022/06/10 06:36:24;;;;;;;;;;;17.10;1.00;;;;;;10288194;28;87143;-51
2022/06/10 06:41:25;;;;;;;;;;;17.00;1.00;;;;;;10288387;28;86845;-49
2022/06/10 06:46:26;;;;;;;;;;;17.10;1.00;;;;;;10289471;28;84094;-50
2022/06/10 06:51:26;;;;;;;;;;;17.30;1.00;;;;;;10288801;28;84776;-50
2022/06/10 06:56:28;;;;;;;;;;;17.30;1.00;;;;;;10287447;28;86955;-51
2022/06/10 07:01:29;;;;;;;;;;;17.20;1.00;;;;;;10290313;28;84746;-51
2022/06/10 07:06:29;;;;;;;;;;;17.20;1.00;;;;;;10290267;28;84969;-54
2022/06/10 07:11:31;;;;;;;;;;;17.30;1.00;;;;;;10290066;28;84043;-52
2022/06/10 07:16:31;;;;;;;;;;;17.50;1.00;;;;;;10289849;28;84289;-50
2022/06/10 07:21:32;;;;;;;;;;;17.80;1.00;;;;;;10288475;28;84110;-51
2022/06/10 07:26:32;;;;;;;;;;;17.90;1.00;;;;;;10289191;28;84882;-53
2022/06/10 07:31:34;;;;;;;;;;;17.90;1.00;;;;;;10288847;28;84132;-53
2022/06/10 07:36:35;;;;;;;;;;;18.10;1.00;;;;;;10287975;28;85327;-54
2022/06/10 07:47:11;;;;;;;;;;;18.30;1.00;;;;;;10287428;28;84362;-49
2022/06/10 07:52:12;;;;;;;;;;;18.50;99.90;;;;;;10286832;28;86056;-49
2022/06/10 07:57:12;;;;;;;;;;;18.40;99.90;;;;;;10287867;28;84924;-48
2022/06/10 08:02:13;;;;;;;;;;;18.50;99.90;;;;;;10286068;28;85380;-49
2022/06/10 08:07:13;;;;;;;;;;;18.40;99.90;;;;;;10287123;28;84151;-50
2022/06/10 08:12:14;;;;;;;;;;;18.50;99.90;;;;;;10285322;28;86069;-48
2022/06/10 08:17:14;;;;;;;;;;;18.50;99.90;;;;;;10287551;28;84443;-46
2022/06/10 08:22:34;;;;;;;;;;;18.60;99.90;;;;;;10286189;28;86268;-52
2022/06/10 08:27:35;;;;;;;;;;;18.70;99.90;;;;;;10286364;28;85286;-50
2022/06/10 08:32:35;;;;;;;;;;;18.70;99.90;;;;;;10286713;28;84307;-49
2022/06/10 08:37:36;;;;;;;;;;;18.50;99.90;;;;;;10286600;28;84966;-50
2022/06/10 08:42:36;;;;;;;;;;;18.40;1.00;;;;;;10286733;28;84870;-49
2022/06/10 08:47:57;;;;;;;;;;;18.60;99.90;;;;;;10286269;28;85100;-47
2022/06/10 08:53:13;;;;;;;;;;;18.50;99.90;;;;;;10285017;28;85973;-49
2022/06/10 08:58:19;;;;;;;;;;;18.80;99.90;;;;;;10286510;28;84790;-53
2022/06/10 09:03:19;;;;;;;;;;;19.20;99.90;;;;;;10286325;28;84671;-56
2022/06/10 09:08:22;;;;;;;;;;;19.30;99.90;;;;;;10284857;28;84381;-51
2022/06/10 09:13:36;;;;;;;;;;;19.30;99.90;;;;;;10287513;28;84924;-49
2022/06/10 09:18:36;;;;;;;;;;;19.30;99.90;;;;;;10293309;28;84877;-52
2022/06/10 09:23:39;;;;;;;;;;;19.60;99.90;;;;;;10293142;28;84742;-50
2022/06/10 09:28:42;;;;;;;;;;;19.80;1.00;;;;;;10292243;28;84094;-52
2022/06/10 09:33:49;;;;;;;;;;;20.00;1.00;;;;;;10291073;28;84897;-50
2022/06/10 09:40:35;;;;;;;;;;;19.60;1.00;;;;;;10292255;28;85048;-49
2022/06/10 09:44:36;;;;;;;;;;;19.70;99.90;;;;;;10291990;28;84133;-49
2022/06/10 09:49:45;;;;;;;;;;;20.00;1.00;;;;;;10291527;28;84115;-49
2022/06/10 09:55:04;;;;;;;;;;;20.80;1.00;;;;;;10291800;28;84889;-49
2022/06/10 10:00:18;;;;;;;;;;;21.80;99.90;;;;;;10291203;28;84822;-51
2022/06/10 10:05:28;;;;;;;;;;;23.20;1.00;;;;;;10274116;28;86060;-52
2022/06/10 10:10:31;;;;;;;;;;;24.50;99.90;;;;;;10291405;28;85345;-48
2022/06/10 10:15:49;;;;;;;;;;;25.00;1.00;;;;;;10290901;28;84959;-49
2022/06/10 10:20:58;;;;;;;;;;;24.30;1.00;;;;;;10290018;28;84677;-53
2022/06/10 10:25:59;;;;;;;;;;;23.50;99.90;;;;;;10288537;28;86039;-53
2022/06/10 10:31:02;;;;;;;;;;;23.30;1.00;;;;;;10290940;28;84231;-47
2022/06/10 10:36:06;;;;;;;;;;;22.90;99.90;;;;;;10290785;28;84241;-53
2022/06/10 10:41:13;;;;;;;;;;;22.80;1.00;;;;;;10291063;28;85022;-53
2022/06/10 10:46:32;;;;;;;;;;;22.20;1.00;;;;;;10280906;28;85677;-47
2022/06/10 10:51:40;;;;;;;;;;;22.00;1.00;;;;;;10280175;28;84505;-49
2022/06/10 10:56:41;;;;;;;;;;;22.50;76.40;;;;;;10257457;28;85024;-48
2022/06/10 11:01:50;;;;;;;;;;;22.00;1.00;;;;;;10269998;28;85113;-56
2022/06/10 11:07:24;;;;;;;;;;;22.40;1.00;;;;;;10272840;28;85126;-49
2022/06/10 11:12:27;;;;;;;;;;;22.80;1.00;;;;;;10252328;28;86756;-54
2022/06/10 11:17:28;;;;;;;;;;;22.70;99.90;;;;;;10292275;28;85908;-51
2022/06/10 11:22:30;;;;;;;;;;;23.40;99.90;;;;;;10282489;28;85889;-51
2022/06/10 11:27:35;;;;;;;;;;;24.30;1.00;;;;;;10285314;28;84238;-55
2022/06/10 11:32:39;;;;;;;;;;;25.10;1.00;;;;;;10286559;28;84296;-52
2022/06/10 11:37:40;;;;;;;;;;;25.10;99.90;;;;;;10285635;28;84660;-55
2022/06/10 11:42:50;;;;;;;;;;;25.30;1.00;;;;;;10281127;28;84251;-53
2022/06/10 11:48:00;;;;;;;;;;;24.90;1.00;;;;;;10287778;28;85058;-54
2022/06/10 11:53:10;;;;;;;;;;;24.90;1.00;;;;;;10281436;28;84936;-58
2022/06/10 12:03:41;;;;;;;;;;;24.50;99.90;;;;;;10309328;22;84863;-50
2022/06/10 12:08:54;;;;;;;;;;;24.40;99.90;;;;;;10287495;28;85063;-48
2022/06/10 12:13:59;;;;;;;;;;;24.30;99.90;;;;;;10288302;28;84960;-50
2022/06/10 12:19:01;;;;;;;;;;;24.80;17.80;;;;;;10315024;28;84662;-52
2022/06/10 12:24:01;;;;;;;;;;;25.20;95.00;;;;;;10321922;28;84377;-54
2022/06/10 12:29:02;;;;;;;;;;;24.70;1.00;;;;;;10327287;28;84131;-52
2022/06/10 12:34:15;;;;;;;;;;;25.90;99.90;;;;;;10325841;28;84598;-54
2022/06/10 12:39:31;;;;;;;;;;;26.40;99.90;;;;;;10320836;28;86196;-53
2022/06/10 12:44:34;;;;;;;;;;;27.70;1.00;;;;;;10317960;28;84317;-55
2022/06/10 12:49:38;;;;;;;;;;;26.90;99.90;;;;;;10324947;28;84264;-55
2022/06/10 12:54:52;;;;;;;;;;;26.30;1.00;;;;;;10326198;28;84881;-54
2022/06/10 13:00:13;;;;;;;;;;;26.80;1.00;;;;;;10325511;28;84209;-53
2022/06/10 13:05:26;;;;;;;;;;;27.40;99.90;;;;;;10310473;28;84796;-52
2022/06/10 13:10:33;;;;;;;;;;;28.00;46.80;;;;;;10322287;28;84296;-53
2022/06/10 13:15:34;;;;;;;;;;;28.20;1.00;;;;;;10315914;28;84534;-55
2022/06/10 13:20:38;;;;;;;;;;;26.40;99.90;;;;;;10323338;28;84254;-47
2022/06/10 13:25:39;;;;;;;;;;;27.70;84.30;;;;;;10321727;28;84208;-48
2022/06/10 13:30:39;;;;;;;;;;;27.70;1.00;;;;;;10325452;28;84236;-58
2022/06/10 13:35:43;;;;;;;;;;;26.80;9.20;;;;;;10319660;28;85379;-50
2022/06/10 13:40:48;;;;;;;;;;;26.40;99.90;;;;;;10326679;28;84221;-52
2022/06/10 13:45:48;;;;;;;;;;;27.10;99.90;;;;;;10331268;28;84053;-49
2022/06/10 13:56:13;;;;;;;;;;;25.80;99.90;;;;;;10313763;28;85445;-51
2022/06/10 14:01:19;;;;;;;;;;;25.00;1.00;;;;;;10329279;28;85625;-49
2022/06/10 14:06:24;;;;;;;;;;;24.60;99.90;;;;;;10328395;28;84446;-47
2022/06/10 14:11:27;;;;;;;;;;;24.30;1.00;;;;;;10315302;28;84869;-47
2022/06/10 14:16:28;;;;;;;;;;;24.30;1.00;;;;;;10320321;28;84831;-52
2022/06/10 14:21:29;;;;;;;;;;;24.50;1.00;;;;;;10330343;28;84127;-49
2022/06/10 14:26:32;;;;;;;;;;;24.40;1.00;;;;;;10331478;28;84872;-52
2022/06/10 14:31:35;;;;;;;;;;;24.50;1.00;;;;;;10330852;28;84247;-48
2022/06/10 14:36:47;;;;;;;;;;;24.80;1.00;;;;;;10331637;28;85164;-51
2022/06/10 14:41:51;;;;;;;;;;;25.00;99.90;;;;;;10329560;28;84234;-47
2022/06/10 14:47:10;;;;;;;;;;;24.80;1.00;;;;;;10328703;28;86808;-50
2022/06/10 14:52:12;;;;;;;;;;;24.60;1.00;;;;;;10334685;28;85453;-49
2022/06/10 14:57:20;;;;;;;;;;;24.60;1.00;;;;;;10327130;28;84923;-49
2022/06/10 15:02:21;;;;;;;;;;;24.60;1.00;;;;;;10325993;28;85560;-47
2022/06/10 15:07:22;;;;;;;;;;;24.30;1.00;;;;;;10329252;28;84118;-52
2022/06/10 15:12:24;;;;;;;;;;;24.20;99.90;;;;;;10328925;28;84973;-53
2022/06/10 15:17:26;;;;;;;;;;;24.20;99.90;;;;;;10325134;28;84256;-48
2022/06/10 15:22:30;;;;;;;;;;;24.10;99.90;;;;;;10298038;28;85453;-52
2022/06/10 15:27:31;;;;;;;;;;;24.10;1.00;;;;;;10330228;28;84218;-52
2022/06/10 15:32:32;;;;;;;;;;;23.90;1.00;;;;;;10330430;28;84849;-50
2022/06/10 15:42:52;;;;;;;;;;;24.20;99.90;;;;;;10323582;28;85159;-51
2022/06/10 15:47:52;;;;;;;;;;;24.00;1.00;;;;;;10355769;28;84144;-51
2022/06/10 15:52:53;;;;;;;;;;;23.80;1.00;;;;;;10334393;28;84486;-52
2022/06/10 15:57:54;;;;;;;;;;;23.90;99.90;;;;;;10334350;28;84864;-53
2022/06/10 16:02:54;;;;;;;;;;;24.10;99.90;;;;;;10352311;28;84416;-47
2022/06/10 16:07:55;;;;;;;;;;;24.00;1.00;;;;;;10328513;28;84240;-48
2022/06/10 16:13:02;;;;;;;;;;;23.60;1.00;;;;;;10325714;28;84233;-53
2022/06/10 16:18:04;;;;;;;;;;;23.50;99.90;;;;;;10343426;28;84311;-51
2022/06/10 16:23:06;;;;;;;;;;;23.40;1.00;;;;;;10338360;28;85690;-54
2022/06/10 16:28:06;;;;;;;;;;;23.10;99.90;;;;;;10330590;28;84893;-48
2022/06/10 16:33:08;;;;;;;;;;;23.10;99.90;;;;;;10332468;28;84912;-51
2022/06/10 16:38:22;;;;;;;;;;;23.10;99.90;;;;;;10334413;28;85144;-53
2022/06/10 16:43:25;;;;;;;;;;;23.00;1.00;;;;;;10331741;28;84300;-52
2022/06/10 16:48:26;;;;;;;;;;;22.90;1.00;;;;;;10334771;28;84257;-54
2022/06/10 16:53:27;;;;;;;;;;;22.80;1.00;;;;;;10350332;28;84544;-57
2022/06/10 16:58:31;;;;;;;;;;;22.70;99.90;;;;;;10350623;28;84154;-52
2022/06/10 17:03:32;;;;;;;;;;;22.60;1.00;;;;;;10349551;28;84077;-51
2022/06/10 17:08:33;;;;;;;;;;;22.50;1.00;;;;;;10340857;28;84147;-51
2022/06/10 17:13:35;;;;;;;;;;;22.50;1.00;;;;;;10352262;28;85039;-48
2022/06/10 17:18:36;;;;;;;;;;;22.50;99.90;;;;;;10344128;28;85316;-47
2022/06/10 17:23:37;;;;;;;;;;;22.70;61.30;;;;;;10341961;28;84981;-46
2022/06/10 17:28:38;;;;;;;;;;;22.70;1.00;;;;;;10347266;28;84597;-49
2022/06/10 17:33:41;;;;;;;;;;;22.70;1.00;;;;;;10345636;28;85105;-47
2022/06/10 17:38:43;;;;;;;;;;;22.70;1.30;;;;;;10353498;28;85371;-49
2022/06/10 17:43:45;;;;;;;;;;;22.60;99.90;;;;;;10356578;28;84456;-52
2022/06/10 17:48:46;;;;;;;;;;;22.40;1.00;;;;;;10346263;28;84231;-51
2022/06/10 17:53:46;;;;;;;;;;;22.30;1.00;;;;;;10361935;28;84412;-53
2022/06/10 17:58:47;;;;;;;;;;;22.30;1.00;;;;;;10355379;28;85082;-50
2022/06/10 18:03:49;;;;;;;;;;;22.20;1.00;;;;;;10356376;28;84568;-50
2022/06/10 18:08:50;;;;;;;;;;;22.20;1.00;;;;;;10356887;28;84189;-49
2022/06/10 18:19:19;;;;;;;;;;;22.20;1.00;;;;;;10296064;28;85010;-62
2022/06/10 18:24:21;;;;;;;;;;;22.20;1.00;;;;;;10296317;28;85009;-65
2022/06/10 18:29:41;;;;;;;;;;;22.20;1.00;;;;;;10302245;28;86426;-67
2022/06/10 18:34:42;;;;;;;;;;;22.10;1.00;;;;;;10306943;28;84265;-61
2022/06/10 18:39:46;;;;;;;;;;;22.10;1.00;;;;;;10294029;28;84905;-62
2022/06/10 18:44:48;;;;;;;;;;;22.10;1.00;;;;;;10288068;28;84094;-61
2022/06/10 18:49:49;;;;;;;;;;;22.10;63.70;;;;;;10309656;28;85088;-62
2022/06/10 18:54:54;;;;;;;;;;;22.00;99.90;;;;;;10291335;28;85046;-64
2022/06/10 18:59:54;;;;;;;;;;;21.90;99.90;;;;;;10291463;28;86343;-59
2022/06/10 19:04:55;;;;;;;;;;;21.80;99.90;;;;;;10305352;28;84388;-64
2022/06/10 19:09:56;;;;;;;;;;;21.80;1.00;;;;;;10306126;28;84433;-63
2022/06/10 19:14:57;;;;;;;;;;;21.80;1.00;;;;;;10290165;28;84662;-63
2022/06/10 19:20:00;;;;;;;;;;;21.80;1.00;;;;;;10292483;28;84237;-63
2022/06/10 19:25:00;;;;;;;;;;;21.70;1.00;;;;;;10288769;28;84105;-64
2022/06/10 19:30:03;;;;;;;;;;;21.60;1.00;;;;;;10305422;28;84444;-62
2022/06/10 19:35:06;;;;;;;;;;;21.60;1.00;;;;;;10296962;28;85555;-58
2022/06/10 19:40:12;;;;;;;;;;;21.60;1.00;;;;;;10282947;28;84546;-60
2022/06/10 19:45:15;;;;;;;;;;;21.50;1.00;;;;;;10286303;28;85086;-58
2022/06/10 19:50:22;;;;;;;;;;;21.40;1.00;;;;;;10286811;28;85424;-65
2022/06/10 19:55:27;;;;;;;;;;;21.40;1.00;;;;;;10287807;28;84156;-63
2022/06/10 20:00:29;;;;;;;;;;;21.40;1.70;;;;;;10288369;28;84261;-61
2022/06/10 20:05:32;;;;;;;;;;;21.30;99.90;;;;;;10290294;28;84114;-60
2022/06/10 20:10:34;;;;;;;;;;;21.30;99.90;;;;;;10283681;28;84034;-64
2022/06/10 20:15:37;;;;;;;;;;;21.20;99.90;;;;;;10282771;28;85433;-59
2022/06/10 20:20:38;;;;;;;;;;;21.20;99.90;;;;;;10281543;28;85016;-58
2022/06/10 20:25:38;;;;;;;;;;;21.10;99.90;;;;;;10281849;28;84258;-63
2022/06/10 20:30:41;;;;;;;;;;;21.10;99.90;;;;;;10286265;28;84730;-60
2022/06/10 20:35:42;;;;;;;;;;;21.10;99.90;;;;;;10288216;28;84059;-60
2022/06/10 20:40:43;;;;;;;;;;;21.10;99.90;;;;;;10284978;28;84219;-60
2022/06/10 20:45:49;;;;;;;;;;;21.00;99.90;;;;;;10289307;28;84264;-60
2022/06/10 20:50:51;;;;;;;;;;;21.00;99.90;;;;;;10276156;28;84842;-61
2022/06/10 20:55:52;;;;;;;;;;;21.00;99.90;;;;;;10288420;28;84940;-60
2022/06/10 21:00:53;;;;;;;;;;;20.90;99.90;;;;;;10287346;28;84260;-62
2022/06/10 21:11:13;;;;;;;;;;;20.90;99.90;;;;;;10299866;28;84165;-57
2022/06/10 21:16:16;;;;;;;;;;;20.90;99.90;;;;;;10298658;28;85743;-58
2022/06/10 21:21:28;;;;;;;;;;;20.90;99.90;;;;;;10299477;28;84941;-63
2022/06/10 21:26:31;;;;;;;;;;;20.80;99.90;;;;;;10298333;28;86078;-58
2022/06/10 21:31:34;;;;;;;;;;;20.80;99.90;;;;;;10298798;28;84898;-61
2022/06/10 21:36:36;;;;;;;;;;;20.80;99.90;;;;;;10299840;28;85042;-59
2022/06/10 21:41:39;;;;;;;;;;;20.70;99.90;;;;;;10297663;28;86674;-59
2022/06/10 21:46:41;;;;;;;;;;;20.70;99.90;;;;;;10292767;28;85155;-59
2022/06/10 21:51:42;;;;;;;;;;;20.70;99.90;;;;;;10280743;28;84232;-58
2022/06/10 21:56:44;;;;;;;;;;;20.70;99.90;;;;;;10301415;28;86618;-59
2022/06/10 22:01:47;;;;;;;;;;;20.70;99.90;;;;;;10297434;28;84728;-60
2022/06/10 22:06:53;;;;;;;;;;;20.70;99.90;;;;;;10295908;28;85079;-60
2022/06/10 22:11:56;;;;;;;;;;;20.60;99.90;;;;;;10295928;28;85303;-59
2022/06/10 22:16:57;;;;;;;;;;;20.60;99.90;;;;;;10297170;28;84164;-58
2022/06/10 22:22:18;;;;;;;;;;;20.60;99.90;;;;;;10291512;28;84851;-59
2022/06/10 22:27:20;;;;;;;;;;;20.50;99.90;;;;;;10290271;28;84173;-60
2022/06/10 22:32:23;;;;;;;;;;;20.50;99.90;;;;;;10263628;28;85071;-61
2022/06/10 22:37:31;;;;;;;;;;;20.50;99.90;;;;;;10248646;28;86968;-59
2022/06/10 22:42:32;;;;;;;;;;;20.50;99.90;;;;;;10249637;28;84899;-58
2022/06/10 22:47:35;;;;;;;;;;;20.40;99.90;;;;;;10263703;28;84940;-61
2022/06/10 22:52:38;;;;;;;;;;;20.40;99.90;;;;;;10287213;28;84974;-60
2022/06/10 22:57:39;;;;;;;;;;;20.40;99.90;;;;;;10290683;28;84257;-58
2022/06/10 23:02:43;;;;;;;;;;;20.40;99.90;;;;;;10290221;28;84253;-57
2022/06/10 23:07:46;;;;;;;;;;;20.40;99.90;;;;;;10273205;28;84881;-59
2022/06/10 23:12:46;;;;;;;;;;;20.40;99.90;;;;;;10249138;28;84836;-59
2022/06/10 23:17:48;;;;;;;;;;;20.30;99.90;;;;;;10272777;28;85326;-61
2022/06/10 23:22:49;;;;;;;;;;;20.30;99.90;;;;;;10289411;28;84157;-57
2022/06/10 23:27:50;;;;;;;;;;;20.30;1.00;;;;;;10251882;28;85010;-59
2022/06/10 23:32:52;;;;;;;;;;;20.30;1.00;;;;;;10245078;28;84149;-60
2022/06/10 23:37:55;;;;;;;;;;;20.30;1.00;;;;;;10260652;28;84008;-57
2022/06/10 23:42:57;;;;;;;;;;;20.30;1.00;;;;;;10289222;28;85000;-59
2022/06/10 23:53:18;;;;;;;;;;;20.20;1.00;;;;;;10287563;28;84679;-60
2022/06/10 23:58:30;;;;;;;;;;;20.10;1.00;;;;;;10286358;28;84951;-60
